Time;durP1;ratioP1;P1;durP2;ratioP2;P2;SDS_P1;SDS_P2;PMS_P1;PMS_P2;Temp;Humidity;BMP_temperature;BMP_pressure;BME280_temperature;BME280_humidity;BME280_pressure;Samples;Min_cycle;Max_cycle;Signal;HPM_P1;HPM_P2
2024/01/22 05:22:33;;;;;;;0.98;0.88;;;;;;;4.63;100.00;100549.50;5068189;28;20417;-38
2024/01/22 05:24:58;;;;;;;1.20;0.93;;;;;;;4.94;100.00;100554.81;5068957;28;20500;-33
2024/01/22 05:27:27;;;;;;;0.75;0.75;;;;;;;4.89;100.00;100555.22;5068720;28;20681;-33
2024/01/22 05:29:52;;;;;;;2.45;1.52;;;;;;;5.08;99.08;100544.75;5068862;28;20574;-35
2024/01/22 05:32:17;;;;;;;1.13;0.73;;;;;;;5.12;98.99;100546.16;5068843;28;20112;-34
2024/01/22 05:34:43;;;;;;;1.00;0.80;;;;;;;5.01;98.08;100533.03;5068818;28;20040;-35
2024/01/22 05:37:08;;;;;;;2.70;1.13;;;;;;;5.29;96.92;100522.78;5068471;28;20082;-33
2024/01/22 05:39:34;;;;;;;2.13;1.33;;;;;;;5.28;96.96;100521.06;5067269;28;20165;-33
2024/01/22 05:41:59;;;;;;;2.08;1.20;;;;;;;5.37;96.38;100526.41;5068449;28;20527;-34
2024/01/22 05:44:25;;;;;;;1.40;1.15;;;;;;;5.22;97.03;100511.91;5068579;28;20503;-38
2024/01/22 05:46:51;;;;;;;1.45;1.20;;;;;;;5.40;94.87;100514.72;5068258;28;20060;-39
2024/01/22 05:49:18;;;;;;;1.08;0.73;;;;;;;5.57;93.85;100511.47;5068423;28;20063;-34
2024/01/22 05:51:44;;;;;;;1.13;0.97;;;;;;;5.68;92.15;100495.50;5068610;28;20083;-36
2024/01/22 05:54:09;;;;;;;1.17;0.65;;;;;;;5.75;91.17;100494.97;5068277;28;20279;-36
2024/01/22 05:56:35;;;;;;;5.60;0.73;;;;;;;5.76;90.58;100502.75;5068138;28;20033;-42
2024/01/22 05:59:00;;;;;;;0.70;0.70;;;;;;;6.21;86.45;100504.94;5068203;28;20044;-34
2024/01/22 06:01:29;;;;;;;1.42;0.80;;;;;;;6.41;84.09;100495.19;5068257;28;20040;-36
2024/01/22 06:03:54;;;;;;;1.40;0.60;;;;;;;6.47;82.75;100494.63;5068197;28;20043;-35
2024/01/22 06:06:20;;;;;;;4.00;1.30;;;;;;;6.72;79.65;100467.56;5068127;28;20107;-38
2024/01/22 06:08:47;;;;;;;1.35;1.10;;;;;;;6.93;77.14;100459.41;5067889;28;20071;-37
2024/01/22 06:11:13;;;;;;;2.30;1.33;;;;;;;7.00;76.17;100463.16;5068042;28;20029;-35
2024/01/22 06:13:39;;;;;;;0.88;0.80;;;;;;;7.17;73.82;100448.31;5068132;28;20029;-34
2024/01/22 06:16:09;;;;;;;0.63;0.63;;;;;;;7.08;74.16;100438.56;5068125;28;20542;-39
2024/01/22 06:18:35;;;;;;;1.17;1.00;;;;;;;7.13;73.61;100433.69;5067840;28;20040;-36
2024/01/22 06:21:01;;;;;;;2.03;1.20;;;;;;;7.45;70.97;100429.75;5067609;28;20116;-35
2024/01/22 06:23:26;;;;;;;2.20;1.20;;;;;;;7.44;69.97;100425.44;5067817;28;20140;-37
2024/01/22 06:25:51;;;;;;;1.13;0.85;;;;;;;7.72;67.56;100419.09;5067501;28;20028;-37
2024/01/22 06:28:17;;;;;;;3.03;1.00;;;;;;;7.98;66.19;100419.19;5067350;28;20488;-35
2024/01/22 06:30:43;;;;;;;1.77;0.70;;;;;;;8.19;64.96;100413.56;5067704;28;20029;-36
2024/01/22 06:33:09;;;;;;;2.10;0.70;;;;;;;8.32;63.99;100403.38;5058588;28;20569;-35
2024/01/22 06:35:34;;;;;;;1.75;0.52;;;;;;;8.68;62.04;100390.03;5054446;28;20064;-37
2024/01/22 06:38:00;;;;;;;0.73;0.70;;;;;;;8.71;61.56;100392.38;5054001;28;20039;-37
2024/01/22 06:40:25;;;;;;;1.50;0.75;;;;;;;8.70;62.29;100396.03;5054065;28;20029;-33
2024/01/22 06:42:50;;;;;;;0.77;0.60;;;;;;;8.66;62.22;100399.97;5054207;28;20077;-34
2024/01/22 06:45:16;;;;;;;2.45;0.90;;;;;;;8.83;61.73;100387.63;5050455;28;20045;-37
2024/01/22 06:47:42;;;;;;;1.75;0.63;;;;;;;8.67;62.64;100386.56;5053164;28;20033;-39
2024/01/22 06:50:07;;;;;;;0.93;0.80;;;;;;;8.79;61.94;100388.91;5053379;28;20047;-34
2024/01/22 06:52:33;;;;;;;0.77;0.73;;;;;;;9.10;61.08;100384.75;5052347;28;20110;-34
2024/01/22 06:55:00;;;;;;;1.65;0.70;;;;;;;9.17;61.14;100388.44;5053938;28;20167;-35
2024/01/22 06:57:25;;;;;;;2.92;1.17;;;;;;;14.62;81.97;100371.28;5053710;28;20555;-32
2024/01/22 06:59:52;;;;;;;2.72;1.13;;;;;;;14.18;64.12;100382.25;5052592;28;20103;-33
2024/01/22 07:02:18;;;;;;;1.10;1.00;;;;;;;11.75;52.26;100368.88;5053659;28;20143;-34
2024/01/22 07:04:46;;;;;;;1.35;0.60;;;;;;;9.90;58.43;100365.63;5053860;28;20287;-36
2024/01/22 07:07:13;;;;;;;0.90;0.70;;;;;;;9.82;58.68;100355.81;5053338;28;20412;-36
2024/01/22 07:09:38;;;;;;;1.88;0.55;;;;;;;9.72;59.79;100348.00;5053649;28;20047;-39
2024/01/22 07:12:04;;;;;;;0.98;0.70;;;;;;;9.54;61.35;100354.47;5053418;28;20104;-34
2024/01/22 07:14:30;;;;;;;0.95;0.50;;;;;;;9.58;61.38;100361.09;5053410;28;20115;-35
2024/01/22 07:16:55;;;;;;;1.48;0.82;;;;;;;9.29;63.43;100361.56;5052660;28;20636;-34
2024/01/22 07:19:21;;;;;;;2.25;0.60;;;;;;;10.04;58.76;100352.50;5053149;28;20029;-34
2024/01/22 07:21:47;;;;;;;2.58;1.25;;;;;;;9.99;58.45;100349.50;5052958;28;20041;-40
2024/01/22 07:24:12;;;;;;;2.33;0.80;;;;;;;9.95;58.94;100332.22;5044566;28;20052;-34
2024/01/22 07:26:37;;;;;;;1.63;0.57;;;;;;;9.98;59.15;100323.91;5052117;28;20156;-34
2024/01/22 07:29:04;;;;;;;1.45;0.90;;;;;;;10.06;58.79;100328.38;5052685;28;20073;-38
2024/01/22 07:31:30;;;;;;;0.90;0.50;;;;;;;10.18;58.44;100316.41;5053118;28;20033;-36
2024/01/22 07:33:55;;;;;;;1.23;0.70;;;;;;;10.11;59.11;100320.75;5052182;28;20041;-38
2024/01/22 07:36:20;;;;;;;1.98;0.70;;;;;;;10.26;59.22;100307.59;5052669;28;20086;-39
2024/01/22 07:38:47;;;;;;;1.20;0.80;;;;;;;10.12;61.19;100311.75;5052714;28;20474;-35
2024/01/22 07:41:13;;;;;;;0.60;0.50;;;;;;;10.20;62.36;100324.22;5052973;28;20040;-39
2024/01/22 07:43:39;;;;;;;0.60;0.52;;;;;;;10.12;63.67;100311.75;5052410;28;20045;-40
2024/01/22 07:46:05;;;;;;;0.60;0.50;;;;;;;10.00;64.70;100329.88;5052319;28;20049;-36
2024/01/22 07:48:30;;;;;;;0.30;0.30;;;;;;;10.15;67.96;100326.53;5052597;28;20093;-34
2024/01/22 07:50:55;;;;;;;0.60;0.50;;;;;;;9.89;73.05;100318.75;5052933;28;20599;-34
2024/01/22 07:53:21;;;;;;;3.17;0.70;;;;;;;9.97;75.12;100324.88;5052947;28;20103;-38
2024/01/22 07:55:47;;;;;;;1.45;0.40;;;;;;;9.95;75.95;100326.06;5052874;28;20037;-35
2024/01/22 07:58:14;;;;;;;0.60;0.60;;;;;;;10.04;76.38;100323.25;5052690;28;20040;-35
2024/01/22 08:00:40;;;;;;;0.52;0.40;;;;;;;9.94;78.20;100313.75;5052699;28;20036;-39
2024/01/22 08:03:05;;;;;;;0.80;0.50;;;;;;;10.31;77.53;100315.91;5052719;28;20454;-38
2024/01/22 08:05:31;;;;;;;0.75;0.30;;;;;;;10.24;79.46;100304.28;5051334;28;20040;-34
2024/01/22 08:07:57;;;;;;;1.15;0.77;;;;;;;10.30;79.22;100317.75;5052273;28;20032;-36
2024/01/22 08:10:22;;;;;;;0.45;0.45;;;;;;;10.48;78.62;100328.16;5052510;28;20104;-37
2024/01/22 08:12:49;;;;;;;0.75;0.60;;;;;;;10.63;77.98;100319.47;5051465;28;20124;-37
2024/01/22 08:15:15;;;;;;;2.05;0.65;;;;;;;10.64;78.73;100315.81;5051416;28;20037;-35
2024/01/22 08:17:42;;;;;;;1.02;0.70;;;;;;;10.64;80.01;100319.31;5052211;28;20511;-34
2024/01/22 08:20:08;;;;;;;4.47;0.60;;;;;;;10.82;79.60;100321.72;5050122;28;20044;-33
2024/01/22 08:22:34;;;;;;;1.52;0.43;;;;;;;10.84;79.73;100325.06;5051907;28;20037;-36
2024/01/22 08:24:59;;;;;;;1.85;0.50;;;;;;;10.92;79.62;100322.34;5052027;28;20116;-35
2024/01/22 08:27:24;;;;;;;1.50;0.47;;;;;;;11.07;79.33;100322.44;5051924;28;20039;-34
2024/01/22 08:29:50;;;;;;;1.15;0.60;;;;;;;11.23;78.38;100334.88;5051708;28;20032;-36
2024/01/22 08:32:15;;;;;;;0.45;0.45;;;;;;;11.28;80.43;100333.34;5052075;28;20044;-36
2024/01/22 08:34:41;;;;;;;0.43;0.35;;;;;;;11.25;82.40;100341.69;5051878;28;20036;-35
2024/01/22 08:37:07;;;;;;;1.15;0.52;;;;;;;11.20;84.02;100340.53;5051680;28;20037;-35
2024/01/22 08:39:33;;;;;;;0.53;0.43;;;;;;;11.23;84.09;100342.88;5052021;28;20392;-34
2024/01/22 08:41:58;;;;;;;1.00;0.43;;;;;;;11.00;85.93;100335.63;5051652;28;20044;-37
2024/01/22 08:44:24;;;;;;;0.30;0.30;;;;;;;11.10;85.77;100346.09;5051758;28;20041;-38
2024/01/22 08:46:50;;;;;;;2.10;0.77;;;;;;;11.21;87.66;100351.03;5050768;28;20573;-37
2024/01/22 08:49:17;;;;;;;1.35;0.70;;;;;;;10.87;92.72;100348.69;5051780;28;20033;-38
2024/01/22 08:51:43;;;;;;;0.43;0.40;;;;;;;10.70;93.18;100347.09;5051575;28;20408;-35
2024/01/22 08:54:08;;;;;;;0.85;0.45;;;;;;;10.64;95.39;100353.94;5051588;28;20045;-38
2024/01/22 08:56:34;;;;;;;0.40;0.40;;;;;;;10.20;100.00;100335.69;5051194;28;20053;-38
2024/01/22 08:59:00;;;;;;;1.13;0.40;;;;;;;10.18;100.00;100340.34;5051237;28;20071;-33
2024/01/22 09:01:25;;;;;;;0.47;0.47;;;;;;;10.18;100.00;100352.84;5051422;28;20045;-34
2024/01/22 09:03:51;;;;;;;0.88;0.47;;;;;;;10.13;100.00;100344.50;5051282;28;20065;-35
2024/01/22 09:06:16;;;;;;;0.30;0.30;;;;;;;10.17;100.00;100352.00;5051155;28;20441;-39
2024/01/22 09:08:42;;;;;;;0.50;0.35;;;;;;;10.34;100.00;100342.19;5051206;28;20040;-35
2024/01/22 09:11:08;;;;;;;0.50;0.50;;;;;;;10.44;100.00;100337.50;5050066;28;20029;-34
2024/01/22 09:13:33;;;;;;;0.88;0.55;;;;;;;10.51;100.00;100335.81;5049601;28;20385;-34
2024/01/22 09:15:59;;;;;;;1.38;0.43;;;;;;;10.37;100.00;100317.03;5050356;28;20048;-33
2024/01/22 09:18:26;;;;;;;0.57;0.40;;;;;;;10.35;100.00;100332.34;5050538;28;20110;-39
2024/01/22 09:20:52;;;;;;;0.35;0.35;;;;;;;10.43;99.46;100325.19;5050788;28;20037;-33
2024/01/22 09:23:18;;;;;;;0.60;0.50;;;;;;;10.43;99.71;100327.88;5051407;28;20033;-35
2024/01/22 09:25:44;;;;;;;1.85;0.50;;;;;;;10.29;100.00;100315.22;5051105;28;20557;-36
2024/01/22 09:28:10;;;;;;;0.82;0.77;;;;;;;10.27;100.00;100310.06;5050823;28;20040;-35
2024/01/22 09:30:36;;;;;;;1.17;0.57;;;;;;;10.23;100.00;100300.75;5051366;28;20061;-35
2024/01/22 09:33:03;;;;;;;0.50;0.40;;;;;;;10.26;100.00;100300.44;5051078;28;20125;-36
2024/01/22 09:35:28;;;;;;;0.77;0.50;;;;;;;10.45;98.85;100291.22;5050978;28;20128;-34
2024/01/22 09:37:54;;;;;;;0.38;0.35;;;;;;;10.40;98.96;100298.06;5050126;28;20699;-36
2024/01/22 09:40:24;;;;;;;0.50;0.43;;;;;;;10.56;97.05;100288.22;5050858;28;20123;-34
2024/01/22 09:42:50;;;;;;;1.08;0.50;;;;;;;10.62;95.32;100280.50;5051045;28;20032;-36
2024/01/22 09:45:16;;;;;;;0.52;0.40;;;;;;;10.56;95.50;100284.69;5049744;28;20025;-34
2024/01/22 09:47:42;;;;;;;1.80;0.32;;;;;;;10.57;93.74;100295.19;5050453;28;20125;-36
2024/01/22 09:50:08;;;;;;;0.85;0.32;;;;;;;10.73;92.83;100290.78;5050452;28;20429;-34
2024/01/22 09:52:34;;;;;;;1.50;0.60;;;;;;;10.74;93.37;100281.78;5050512;28;20029;-35
2024/01/22 09:55:00;;;;;;;0.65;0.65;;;;;;;10.82;93.10;100281.75;5050212;28;20083;-38
2024/01/22 09:57:27;;;;;;;0.82;0.43;;;;;;;10.99;92.59;100278.00;5050735;28;20401;-35
2024/01/22 09:59:53;;;;;;;1.88;0.50;;;;;;;11.13;91.88;100271.91;5050715;28;20037;-38
2024/01/22 10:02:19;;;;;;;1.63;0.50;;;;;;;11.18;91.83;100279.41;5050895;28;20484;-33
2024/01/22 10:04:45;;;;;;;0.30;0.30;;;;;;;11.12;93.23;100275.59;5050556;28;20094;-34
2024/01/22 10:07:14;;;;;;;0.50;0.40;;;;;;;11.10;92.27;100274.94;5050450;28;20032;-36
2024/01/22 10:09:41;;;;;;;0.43;0.43;;;;;;;11.18;92.35;100275.91;5054489;28;20373;-34
2024/01/22 10:12:06;;;;;;;0.95;0.77;;;;;;;11.15;93.57;100261.09;5054654;28;20108;-36
2024/01/22 10:14:37;;;;;;;0.52;0.30;;;;;;;11.12;92.43;100275.59;5053695;28;20037;-35
2024/01/22 10:17:20;;;;;;;0.60;0.50;;;;;;;11.19;92.56;100283.72;5053645;28;20029;-35
2024/01/22 10:19:49;;;;;;;0.70;0.50;;;;;;;11.17;96.56;100282.25;5052658;28;20037;-33
2024/01/22 10:22:24;;;;;;;1.00;0.43;;;;;;;11.27;93.82;100280.16;5051125;28;20037;-37
2024/01/22 10:25:02;;;;;;;0.50;0.45;;;;;;;11.55;94.40;100278.66;5053939;28;20404;-41
2024/01/22 10:27:28;;;;;;;0.43;0.30;;;;;;;11.39;95.08;100268.09;5052705;28;20041;-38
2024/01/22 10:30:08;;;;;;;2.15;0.70;;;;;;;11.65;92.95;100287.22;5053735;28;20040;-38
2024/01/22 10:32:34;;;;;;;0.85;0.50;;;;;;;11.64;90.32;100264.22;5054008;28;20123;-37
2024/01/22 10:35:01;;;;;;;0.60;0.40;;;;;;;11.68;89.28;100267.38;5054103;28;20113;-34
2024/01/22 10:37:26;;;;;;;0.60;0.50;;;;;;;11.53;88.07;100277.97;5053883;28;20489;-34
2024/01/22 10:40:09;;;;;;;1.95;1.33;;;;;;;11.75;86.68;100265.63;5051689;28;20036;-33
2024/01/22 10:42:34;;;;;;;1.05;0.57;;;;;;;11.43;89.85;100273.91;5053725;28;20552;-35
2024/01/22 10:45:02;;;;;;;0.82;0.50;;;;;;;11.23;91.33;100266.38;5053783;28;20124;-40
2024/01/22 10:47:29;;;;;;;1.50;0.70;;;;;;;10.97;92.94;100258.69;5053534;28;20085;-38
2024/01/22 10:49:56;;;;;;;0.60;0.40;;;;;;;10.76;95.77;100246.00;5050908;28;20104;-35
2024/01/22 10:52:24;;;;;;;1.23;0.60;;;;;;;10.84;94.30;100226.47;5053404;28;20115;-39
2024/01/22 10:54:49;;;;;;;0.52;0.52;;;;;;;11.00;93.03;100237.00;5053812;28;20400;-43
2024/01/22 10:57:23;;;;;;;1.27;0.80;;;;;;;11.07;92.15;100234.47;5050626;28;20029;-35
2024/01/22 10:59:49;;;;;;;0.70;0.50;;;;;;;10.97;93.94;100216.06;5053335;28;20029;-36
2024/01/22 11:02:25;;;;;;;0.63;0.40;;;;;;;11.09;93.59;100221.81;5053140;28;20481;-39
2024/01/22 11:04:58;;;;;;;0.40;0.35;;;;;;;10.96;95.74;100211.75;5053580;28;20051;-35
2024/01/22 11:07:31;;;;;;;1.55;0.40;;;;;;;10.90;99.00;100212.44;5053643;28;20043;-36
2024/01/22 11:09:58;;;;;;;0.30;0.30;;;;;;;11.10;95.00;100197.63;5052737;28;20044;-38
2024/01/22 11:12:30;;;;;;;1.00;0.47;;;;;;;11.11;94.53;100211.81;5053479;28;20622;-33
2024/01/22 11:14:55;;;;;;;1.48;0.45;;;;;;;11.06;95.67;100195.50;5053454;28;20124;-34
2024/01/22 11:17:21;;;;;;;0.43;0.40;;;;;;;11.03;96.79;100204.69;5053157;28;20128;-40
2024/01/22 11:19:47;;;;;;;1.27;0.57;;;;;;;11.00;97.20;100197.03;5053148;28;20029;-34
2024/01/22 11:22:21;;;;;;;0.30;0.30;;;;;;;10.99;97.59;100184.72;5052983;28;20465;-38
2024/01/22 11:25:06;;;;;;;0.35;0.30;;;;;;;11.12;97.21;100181.47;5052276;28;20040;-34
2024/01/22 11:27:42;;;;;;;0.50;0.43;;;;;;;11.06;98.32;100192.84;5050916;28;20529;-38
2024/01/22 11:30:20;;;;;;;0.47;0.40;;;;;;;11.01;98.25;100179.19;5052950;28;20047;-35
2024/01/22 11:32:46;;;;;;;0.90;0.45;;;;;;;11.08;98.28;100181.00;5052242;28;20052;-34
2024/01/22 11:35:12;;;;;;;0.40;0.40;;;;;;;11.02;99.72;100176.38;5052839;28;20476;-35
2024/01/22 11:37:37;;;;;;;0.80;0.68;;;;;;;11.27;98.65;100171.66;5052734;28;20450;-35
2024/01/22 11:40:11;;;;;;;0.95;0.47;;;;;;;11.35;98.60;100168.13;5053045;28;20127;-40
2024/01/22 11:42:36;;;;;;;1.30;0.50;;;;;;;11.38;98.41;100160.56;5053411;28;20075;-36
2024/01/22 11:45:14;;;;;;;1.02;0.57;;;;;;;11.39;98.51;100161.41;5053010;28;20061;-35
2024/01/22 11:47:41;;;;;;;0.50;0.43;;;;;;;11.53;97.80;100154.44;5052854;28;20033;-34
2024/01/22 11:50:07;;;;;;;1.88;0.50;;;;;;;11.41;99.34;100170.91;5052738;28;20037;-35
2024/01/22 11:52:34;;;;;;;0.38;0.30;;;;;;;11.52;99.14;100174.94;5052993;28;20041;-34
2024/01/22 11:55:04;;;;;;;0.68;0.50;;;;;;;11.56;100.00;100162.91;5052645;28;20079;-34
2024/01/22 11:57:37;;;;;;;0.60;0.40;;;;;;;11.43;100.00;100140.56;5052656;28;20098;-35
2024/01/22 12:00:10;;;;;;;1.17;0.45;;;;;;;11.59;100.00;100165.22;5052709;28;20382;-35
2024/01/22 12:02:41;;;;;;;3.13;0.70;;;;;;;11.50;100.00;100142.31;5052897;28;20037;-34
2024/01/22 12:05:12;;;;;;;0.40;0.40;;;;;;;11.51;100.00;100137.78;5052810;28;20107;-35
2024/01/22 12:07:46;;;;;;;1.98;0.60;;;;;;;11.58;100.00;100139.53;5052431;28;20037;-38
2024/01/22 12:10:19;;;;;;;0.98;0.60;;;;;;;11.50;100.00;100141.47;5052472;28;20092;-36
2024/01/22 12:12:49;;;;;;;0.85;0.40;;;;;;;11.50;100.00;100131.63;5052568;28;20051;-35
2024/01/22 12:15:14;;;;;;;0.70;0.50;;;;;;;11.47;100.00;100107.97;5052537;28;20140;-37
2024/01/22 12:17:45;;;;;;;0.98;0.55;;;;;;;11.65;100.00;100132.47;5052302;28;20112;-35
2024/01/22 12:20:12;;;;;;;0.57;0.40;;;;;;;11.50;100.00;100115.63;5052201;28;20045;-34
2024/01/22 12:22:38;;;;;;;0.40;0.40;;;;;;;11.40;100.00;100120.38;5052689;28;20366;-40
2024/01/22 12:25:05;;;;;;;0.77;0.68;;;;;;;11.41;100.00;100106.06;5051700;28;20039;-36
2024/01/22 12:27:31;;;;;;;0.77;0.50;;;;;;;11.33;100.00;100092.78;5051808;28;20041;-34
2024/01/22 12:30:08;;;;;;;0.63;0.60;;;;;;;11.47;100.00;100107.16;5046805;28;20036;-36
2024/01/22 12:32:35;;;;;;;0.65;0.50;;;;;;;11.57;100.00;100097.06;5051864;28;20041;-33
2024/01/22 12:35:00;;;;;;;0.97;0.70;;;;;;;11.76;99.63;100098.34;5034140;28;20041;-34
2024/01/22 12:37:31;;;;;;;0.60;0.50;;;;;;;11.67;99.66;100090.44;5030304;28;20295;-38
2024/01/22 12:40:09;;;;;;;0.55;0.50;;;;;;;11.61;99.68;100087.69;5031918;28;20040;-39
2024/01/22 12:42:34;;;;;;;0.73;0.50;;;;;;;11.60;100.00;100076.16;5032100;28;20029;-38
2024/01/22 12:45:00;;;;;;;1.20;0.60;;;;;;;11.78;98.07;100080.31;5031698;28;20034;-35
2024/01/22 12:47:27;;;;;;;0.70;0.60;;;;;;;11.74;97.77;100071.84;5031311;28;20038;-33
2024/01/22 12:49:53;;;;;;;0.47;0.40;;;;;;;11.75;97.95;100078.84;5031799;28;20029;-35
2024/01/22 12:52:21;;;;;;;0.70;0.60;;;;;;;11.65;98.95;100075.63;5031723;28;20040;-37
2024/01/22 12:54:46;;;;;;;;;;;;;;;11.58;98.99;100072.84;5032256;28;20095;-39
2024/01/22 12:57:11;;;;;;;2.17;0.35;;;;;;;11.45;100.00;100066.50;5031219;28;19921;-35
2024/01/22 12:59:37;;;;;;;0.82;0.40;;;;;;;11.47;100.00;100073.31;5031392;28;20033;-38
2024/01/22 13:02:02;;;;;;;0.80;0.43;;;;;;;11.67;100.00;100074.44;5031708;28;20451;-33
2024/01/22 13:04:27;;;;;;;0.38;0.38;;;;;;;11.73;99.03;100074.69;5031797;28;20046;-33
2024/01/22 13:06:54;;;;;;;0.43;0.30;;;;;;;11.68;98.83;100065.41;5029851;28;20041;-36
2024/01/22 13:09:20;;;;;;;0.40;0.40;;;;;;;11.82;97.22;100063.78;5039432;28;20033;-33
2024/01/22 13:11:46;;;;;;;0.50;0.40;;;;;;;11.81;96.61;100062.13;5030395;28;20091;-34
2024/01/22 13:14:12;;;;;;;1.38;0.60;;;;;;;11.91;96.16;100065.31;5031397;28;20042;-36
2024/01/22 13:16:37;;;;;;;0.40;0.40;;;;;;;11.97;95.30;100052.25;5030968;28;20041;-38
2024/01/22 13:19:03;;;;;;;0.32;0.30;;;;;;;11.92;95.73;100066.16;5031423;28;20489;-35
2024/01/22 13:21:28;;;;;;;0.35;0.30;;;;;;;12.00;95.07;100047.38;5030170;28;20182;-35
2024/01/22 13:23:54;;;;;;;0.30;0.30;;;;;;;11.88;96.31;100057.69;5031490;28;20048;-34
2024/01/22 13:26:19;;;;;;;0.57;0.32;;;;;;;11.95;96.07;100047.09;5031508;28;20100;-37
2024/01/22 13:28:45;;;;;;;0.60;0.50;;;;;;;11.89;96.77;100042.50;5030818;28;20045;-41
2024/01/22 13:31:11;;;;;;;0.40;0.40;;;;;;;11.99;96.22;100050.22;5040116;28;20404;-38
2024/01/22 13:33:37;;;;;;;0.63;0.52;;;;;;;11.92;97.02;100047.47;5045529;28;20041;-35
2024/01/22 13:36:04;;;;;;;0.47;0.40;;;;;;;11.87;97.80;100048.03;5049278;28;20041;-34
2024/01/22 13:38:33;;;;;;;1.87;0.60;;;;;;;11.90;97.45;100062.84;5049804;28;20116;-37
2024/01/22 13:41:04;;;;;;;0.70;0.40;;;;;;;11.85;98.30;100052.72;5049470;28;20061;-39
2024/01/22 13:43:29;;;;;;;1.60;0.40;;;;;;;11.99;96.63;100059.03;5050619;28;20656;-36
2024/01/22 13:45:54;;;;;;;0.98;0.47;;;;;;;12.03;96.73;100060.34;5054519;28;20033;-35
2024/01/22 13:48:21;;;;;;;0.50;0.45;;;;;;;11.97;97.54;100061.09;5054705;28;20049;-35
2024/01/22 13:50:47;;;;;;;1.00;0.40;;;;;;;11.85;97.93;100050.06;5053506;28;20378;-35
2024/01/22 13:53:14;;;;;;;1.20;0.77;;;;;;;12.00;96.95;100062.53;5055089;28;20043;-38
2024/01/22 13:55:39;;;;;;;0.40;0.40;;;;;;;11.95;96.79;100071.13;5055316;28;20516;-40
2024/01/22 13:58:05;;;;;;;0.50;0.50;;;;;;;11.92;97.17;100079.50;5054791;28;20040;-33
2024/01/22 14:00:30;;;;;;;0.30;0.30;;;;;;;11.76;98.75;100085.84;5054928;28;20041;-36
2024/01/22 14:02:55;;;;;;;0.50;0.50;;;;;;;11.84;97.16;100077.75;5054045;28;20497;-40
2024/01/22 14:05:21;;;;;;;0.60;0.40;;;;;;;11.74;97.69;100085.19;5054418;28;20041;-35
2024/01/22 14:07:47;;;;;;;0.40;0.40;;;;;;;11.73;97.84;100096.88;5054095;28;20036;-35
2024/01/22 14:10:12;;;;;;;0.50;0.50;;;;;;;11.56;99.25;100100.75;5053969;28;20052;-37
2024/01/22 14:12:40;;;;;;;0.60;0.50;;;;;;;11.53;98.92;100109.91;5051745;28;20389;-38
2024/01/22 14:15:09;;;;;;;0.68;0.50;;;;;;;11.57;99.51;100108.56;5053883;28;20037;-35
2024/01/22 14:17:34;;;;;;;1.30;0.50;;;;;;;11.62;99.29;100100.00;5053770;28;20048;-39
2024/01/22 14:20:00;;;;;;;0.90;0.38;;;;;;;11.48;99.79;100107.00;5054035;28;20033;-37
2024/01/22 14:22:27;;;;;;;0.50;0.40;;;;;;;11.62;98.92;100113.34;5053212;28;20044;-35
2024/01/22 14:24:52;;;;;;;0.63;0.50;;;;;;;11.45;100.00;100101.19;5053551;28;20036;-39
2024/01/22 14:27:18;;;;;;;0.70;0.50;;;;;;;11.51;100.00;100109.28;5052989;28;20120;-35
2024/01/22 14:29:44;;;;;;;0.40;0.40;;;;;;;11.30;100.00;100119.84;5053652;28;20539;-38
2024/01/22 14:32:10;;;;;;;0.52;0.35;;;;;;;11.34;100.00;100121.94;5053997;28;20178;-34
2024/01/22 14:34:35;;;;;;;0.32;0.32;;;;;;;11.35;100.00;100106.78;5053967;28;20098;-35
2024/01/22 14:37:02;;;;;;;0.70;0.40;;;;;;;11.36;100.00;100092.44;5053477;28;20056;-33
2024/01/22 14:39:28;;;;;;;0.55;0.50;;;;;;;11.23;100.00;100097.56;5053735;28;20041;-33
2024/01/22 14:41:54;;;;;;;0.50;0.50;;;;;;;11.26;100.00;100078.53;5053718;28;20040;-33
2024/01/22 14:44:20;;;;;;;1.38;0.50;;;;;;;11.23;100.00;100086.91;5053667;28;20037;-34
2024/01/22 14:46:46;;;;;;;0.38;0.32;;;;;;;11.18;100.00;100079.44;5053519;28;20048;-34
2024/01/22 14:49:12;;;;;;;0.57;0.35;;;;;;;11.01;100.00;100118.72;5053733;28;20404;-33
2024/01/22 14:51:47;;;;;;;0.60;0.40;;;;;;;10.85;100.00;100122.34;5053295;28;20036;-33
2024/01/22 14:54:13;;;;;;;0.60;0.50;;;;;;;10.70;100.00;100094.00;5052866;28;20041;-39
2024/01/22 14:56:43;;;;;;;0.65;0.50;;;;;;;10.65;100.00;100118.50;5053203;28;20089;-38
2024/01/22 14:59:08;;;;;;;1.45;0.80;;;;;;;10.56;100.00;100131.06;5053411;28;20033;-36
2024/01/22 15:01:34;;;;;;;0.52;0.40;;;;;;;10.38;100.00;100141.16;5053256;28;20520;-33
2024/01/22 15:03:59;;;;;;;0.75;0.45;;;;;;;10.20;100.00;100149.34;5052986;28;20033;-35
2024/01/22 15:06:25;;;;;;;0.77;0.60;;;;;;;10.22;100.00;100142.00;5053067;28;20051;-36
2024/01/22 15:08:50;;;;;;;1.38;0.50;;;;;;;10.13;100.00;100142.22;5052829;28;20044;-33
2024/01/22 15:11:15;;;;;;;0.60;0.50;;;;;;;10.05;100.00;100140.44;5053039;28;20136;-35
2024/01/22 15:13:41;;;;;;;0.90;0.52;;;;;;;9.94;100.00;100143.47;5053263;28;20076;-35
2024/01/22 15:16:10;;;;;;;0.57;0.57;;;;;;;9.95;100.00;100155.75;5052916;28;20036;-33
2024/01/22 15:18:35;;;;;;;3.17;0.60;;;;;;;9.71;100.00;100153.97;5052848;28;20140;-34
2024/01/22 15:21:01;;;;;;;0.43;0.40;;;;;;;9.66;100.00;100166.97;5052551;28;20556;-37
2024/01/22 15:23:26;;;;;;;0.88;0.50;;;;;;;9.71;100.00;100164.63;5052795;28;20041;-33
2024/01/22 15:25:52;;;;;;;0.68;0.50;;;;;;;9.69;100.00;100161.31;5052098;28;20056;-36
2024/01/22 15:28:17;;;;;;;0.73;0.52;;;;;;;9.73;100.00;100163.47;5052231;28;20501;-37
2024/01/22 15:30:43;;;;;;;2.20;1.00;;;;;;;9.59;100.00;100179.28;5049137;28;20033;-34
2024/01/22 15:33:08;;;;;;;1.15;0.80;;;;;;;9.63;100.00;100164.66;5050699;28;20069;-36
2024/01/22 15:35:34;;;;;;;1.45;0.80;;;;;;;9.64;100.00;100171.63;5052494;28;20053;-36
2024/01/22 15:37:59;;;;;;;3.28;1.08;;;;;;;9.41;100.00;100185.63;5052636;28;20040;-39
2024/01/22 15:40:26;;;;;;;1.30;0.70;;;;;;;9.40;100.00;100193.78;5052575;28;20120;-37
2024/01/22 15:42:52;;;;;;;0.85;0.85;;;;;;;9.37;100.00;100189.59;5052473;28;20044;-35
2024/01/22 15:45:18;;;;;;;2.55;0.65;;;;;;;9.37;100.00;100188.78;5052011;28;20049;-35
2024/01/22 15:47:43;;;;;;;4.70;1.10;;;;;;;9.29;100.00;100194.91;5052334;28;20130;-39
2024/01/22 15:50:09;;;;;;;1.73;0.93;;;;;;;9.30;100.00;100211.69;5052577;28;20167;-38
2024/01/22 15:52:34;;;;;;;1.02;0.70;;;;;;;9.35;100.00;100210.22;5052426;28;20056;-37
2024/01/22 15:55:00;;;;;;;1.38;0.70;;;;;;;9.31;100.00;100226.66;5052486;28;20048;-39
2024/01/22 15:57:25;;;;;;;2.70;0.75;;;;;;;9.17;100.00;100220.16;5052241;28;20045;-35
2024/01/22 15:59:50;;;;;;;0.82;0.70;;;;;;;9.13;100.00;100246.25;5052542;28;20036;-36
2024/01/22 16:02:16;;;;;;;1.27;0.95;;;;;;;9.25;100.00;100250.22;5052344;28;20411;-37
2024/01/22 16:04:41;;;;;;;1.00;0.55;;;;;;;9.21;100.00;100275.50;5051866;28;20045;-35
2024/01/22 16:07:07;;;;;;;1.35;0.77;;;;;;;9.13;100.00;100267.50;5051558;28;20036;-35
2024/01/22 16:09:32;;;;;;;1.05;0.73;;;;;;;8.96;100.00;100282.56;5052288;28;20045;-37
2024/01/22 16:11:58;;;;;;;2.13;0.70;;;;;;;8.87;100.00;100286.22;5052256;28;20041;-37
2024/01/22 16:14:24;;;;;;;2.08;0.60;;;;;;;8.85;100.00;100304.09;5031801;28;20120;-36
2024/01/22 16:16:49;;;;;;;1.17;0.70;;;;;;;8.78;100.00;100316.38;5051990;28;20115;-36
2024/01/22 16:19:15;;;;;;;0.52;0.52;;;;;;;8.76;100.00;100338.78;5051977;28;20558;-36
2024/01/22 16:21:40;;;;;;;0.95;0.63;;;;;;;8.74;100.00;100362.00;5051913;28;20120;-34
2024/01/22 16:24:07;;;;;;;1.73;0.90;;;;;;;8.67;100.00;100398.97;5051956;28;20028;-38
2024/01/22 16:26:32;;;;;;;1.33;1.10;;;;;;;8.62;100.00;100417.22;5052019;28;20099;-35
2024/01/22 16:28:58;;;;;;;1.95;0.73;;;;;;;8.56;100.00;100418.69;5051692;28;20044;-35
2024/01/22 16:31:23;;;;;;;1.70;0.70;;;;;;;8.39;100.00;100412.41;5049172;28;20517;-34
2024/01/22 16:33:49;;;;;;;1.70;0.90;;;;;;;8.36;100.00;100433.97;5051916;28;20115;-37
2024/01/22 16:36:15;;;;;;;0.60;0.60;;;;;;;8.22;100.00;100429.19;5051647;28;20045;-35
2024/01/22 16:38:40;;;;;;;1.10;0.95;;;;;;;8.21;100.00;100432.78;5051531;28;20032;-38
2024/01/22 16:41:06;;;;;;;0.65;0.40;;;;;;;8.14;100.00;100442.34;5051822;28;20564;-37
2024/01/22 16:43:31;;;;;;;1.17;0.43;;;;;;;8.04;100.00;100444.28;5048835;28;20123;-41